sensor_id;sensor_type;location;lat;lon;timestamp;temperature;humidity
12223;DHT22;6174;49.058;8.524;2023-08-08T05:01:06;14.80;99.90
12223;DHT22;6174;49.058;8.524;2023-08-08T05:03:34;14.80;99.90
12223;DHT22;6174;49.058;8.524;2023-08-08T05:06:01;14.90;99.90
12223;DHT22;6174;49.058;8.524;2023-08-08T05:08:28;14.90;99.90
12223;DHT22;6174;49.058;8.524;2023-08-08T05:10:55;14.90;99.90
12223;DHT22;6174;49.058;8.524;2023-08-08T05:13:21;14.90;99.90
12223;DHT22;6174;49.058;8.524;2023-08-08T05:15:48;15.00;99.90
12223;DHT22;6174;49.058;8.524;2023-08-08T05:18:16;15.00;99.90
12223;DHT22;6174;49.058;8.524;2023-08-08T05:20:43;14.90;99.90
12223;DHT22;6174;49.058;8.524;2023-08-08T05:23:10;14.90;99.90
12223;DHT22;6174;49.058;8.524;2023-08-08T05:25:37;14.90;99.90
12223;DHT22;6174;49.058;8.524;2023-08-08T05:28:04;15.00;99.90
12223;DHT22;6174;49.058;8.524;2023-08-08T05:30:31;15.00;99.90
12223;DHT22;6174;49.058;8.524;2023-08-08T05:32:57;15.00;99.90
12223;DHT22;6174;49.058;8.524;2023-08-08T05:35:25;15.00;99.90
12223;DHT22;6174;49.058;8.524;2023-08-08T05:37:53;15.00;99.90
12223;DHT22;6174;49.058;8.524;2023-08-08T05:40:19;15.00;99.90
12223;DHT22;6174;49.058;8.524;2023-08-08T05:42:46;15.10;99.90
12223;DHT22;6174;49.058;8.524;2023-08-08T05:45:13;15.10;99.90
12223;DHT22;6174;49.058;8.524;2023-08-08T05:47:40;15.20;99.90
12223;DHT22;6174;49.058;8.524;2023-08-08T05:50:07;15.20;99.90
12223;DHT22;6174;49.058;8.524;2023-08-08T05:52:36;15.20;99.90
12223;DHT22;6174;49.058;8.524;2023-08-08T05:55:03;15.20;99.90
12223;DHT22;6174;49.058;8.524;2023-08-08T05:57:30;15.30;99.90
12223;DHT22;6174;49.058;8.524;2023-08-08T05:59:58;15.40;99.90
12223;DHT22;6174;49.058;8.524;2023-08-08T06:02:24;15.40;99.90
12223;DHT22;6174;49.058;8.524;2023-08-08T06:04:51;15.50;99.90
12223;DHT22;6174;49.058;8.524;2023-08-08T06:07:18;15.60;99.90
12223;DHT22;6174;49.058;8.524;2023-08-08T06:09:46;15.60;99.90
12223;DHT22;6174;49.058;8.524;2023-08-08T06:12:13;15.70;99.90
12223;DHT22;6174;49.058;8.524;2023-08-08T06:14:40;15.90;99.90
12223;DHT22;6174;49.058;8.524;2023-08-08T06:17:06;15.90;99.90
12223;DHT22;6174;49.058;8.524;2023-08-08T06:19:33;16.00;99.90
12223;DHT22;6174;49.058;8.524;2023-08-08T06:22:00;16.10;99.90
12223;DHT22;6174;49.058;8.524;2023-08-08T06:24:28;16.30;99.90
12223;DHT22;6174;49.058;8.524;2023-08-08T06:26:57;16.40;99.90
12223;DHT22;6174;49.058;8.524;2023-08-08T06:29:24;16.60;99.90
12223;DHT22;6174;49.058;8.524;2023-08-08T06:31:51;16.80;99.90
12223;DHT22;6174;49.058;8.524;2023-08-08T06:34:17;16.90;99.90
12223;DHT22;6174;49.058;8.524;2023-08-08T06:36:44;17.10;99.90
12223;DHT22;6174;49.058;8.524;2023-08-08T06:39:12;17.20;99.90
12223;DHT22;6174;49.058;8.524;2023-08-08T06:41:39;17.40;99.90
12223;DHT22;6174;49.058;8.524;2023-08-08T06:44:07;17.70;99.90
12223;DHT22;6174;49.058;8.524;2023-08-08T06:46:34;18.00;99.90
12223;DHT22;6174;49.058;8.524;2023-08-08T06:49:01;18.30;99.90
12223;DHT22;6174;49.058;8.524;2023-08-08T06:51:28;18.40;99.90
12223;DHT22;6174;49.058;8.524;2023-08-08T06:53:54;18.60;99.90
12223;DHT22;6174;49.058;8.524;2023-08-08T06:56:21;18.70;99.90
12223;DHT22;6174;49.058;8.524;2023-08-08T06:58:48;18.80;99.90
12223;DHT22;6174;49.058;8.524;2023-08-08T07:01:16;18.90;99.90
12223;DHT22;6174;49.058;8.524;2023-08-08T07:03:43;19.10;99.90
12223;DHT22;6174;49.058;8.524;2023-08-08T07:06:10;19.30;99.90
12223;DHT22;6174;49.058;8.524;2023-08-08T07:08:38;19.30;99.50
12223;DHT22;6174;49.058;8.524;2023-08-08T07:11:06;19.40;99.80
12223;DHT22;6174;49.058;8.524;2023-08-08T07:13:32;19.60;98.50
12223;DHT22;6174;49.058;8.524;2023-08-08T07:15:59;19.70;98.60
12223;DHT22;6174;49.058;8.524;2023-08-08T07:18:27;20.10;97.70
12223;DHT22;6174;49.058;8.524;2023-08-08T07:20:54;20.20;97.40
12223;DHT22;6174;49.058;8.524;2023-08-08T07:23:22;20.20;97.00
12223;DHT22;6174;49.058;8.524;2023-08-08T07:25:48;20.00;96.40
12223;DHT22;6174;49.058;8.524;2023-08-08T07:28:15;20.00;97.40
12223;DHT22;6174;49.058;8.524;2023-08-08T07:30:42;20.00;97.50
12223;DHT22;6174;49.058;8.524;2023-08-08T07:33:09;19.60;97.10
12223;DHT22;6174;49.058;8.524;2023-08-08T07:35:37;19.70;97.00
12223;DHT22;6174;49.058;8.524;2023-08-08T07:38:04;19.50;97.60
12223;DHT22;6174;49.058;8.524;2023-08-08T07:40:31;19.50;97.20
12223;DHT22;6174;49.058;8.524;2023-08-08T07:42:57;19.20;98.20
12223;DHT22;6174;49.058;8.524;2023-08-08T07:45:24;18.60;98.20
12223;DHT22;6174;49.058;8.524;2023-08-08T07:47:51;18.40;99.40
12223;DHT22;6174;49.058;8.524;2023-08-08T07:50:17;18.10;99.50
12223;DHT22;6174;49.058;8.524;2023-08-08T07:52:46;18.00;99.90
12223;DHT22;6174;49.058;8.524;2023-08-08T07:55:13;18.00;99.90
12223;DHT22;6174;49.058;8.524;2023-08-08T07:57:39;18.00;99.70
12223;DHT22;6174;49.058;8.524;2023-08-08T08:00:07;18.00;99.90
12223;DHT22;6174;49.058;8.524;2023-08-08T08:02:37;18.00;99.90
12223;DHT22;6174;49.058;8.524;2023-08-08T08:05:04;18.00;99.90
12223;DHT22;6174;49.058;8.524;2023-08-08T08:07:33;18.00;99.90
12223;DHT22;6174;49.058;8.524;2023-08-08T08:10:02;18.10;99.90
12223;DHT22;6174;49.058;8.524;2023-08-08T08:12:30;18.10;99.90
12223;DHT22;6174;49.058;8.524;2023-08-08T08:14:58;18.10;99.90
12223;DHT22;6174;49.058;8.524;2023-08-08T08:17:25;18.00;99.90
12223;DHT22;6174;49.058;8.524;2023-08-08T08:19:53;18.10;99.90
12223;DHT22;6174;49.058;8.524;2023-08-08T08:22:20;18.20;99.90
12223;DHT22;6174;49.058;8.524;2023-08-08T08:24:47;18.30;99.90
12223;DHT22;6174;49.058;8.524;2023-08-08T08:27:15;18.30;99.20
12223;DHT22;6174;49.058;8.524;2023-08-08T08:29:42;18.10;99.90
12223;DHT22;6174;49.058;8.524;2023-08-08T08:32:09;18.10;99.90
12223;DHT22;6174;49.058;8.524;2023-08-08T08:34:35;18.20;99.90
12223;DHT22;6174;49.058;8.524;2023-08-08T08:37:02;18.30;99.90
12223;DHT22;6174;49.058;8.524;2023-08-08T08:39:29;18.30;99.90
12223;DHT22;6174;49.058;8.524;2023-08-08T08:41:58;18.40;99.90
12223;DHT22;6174;49.058;8.524;2023-08-08T08:44:30;18.40;99.90
12223;DHT22;6174;49.058;8.524;2023-08-08T08:46:59;18.50;99.30
12223;DHT22;6174;49.058;8.524;2023-08-08T08:49:29;18.50;99.50
12223;DHT22;6174;49.058;8.524;2023-08-08T08:51:57;18.50;99.90
12223;DHT22;6174;49.058;8.524;2023-08-08T08:54:27;18.60;99.90
12223;DHT22;6174;49.058;8.524;2023-08-08T08:56:55;18.70;99.90
12223;DHT22;6174;49.058;8.524;2023-08-08T08:59:22;18.80;99.20
12223;DHT22;6174;49.058;8.524;2023-08-08T09:01:51;18.70;98.80
12223;DHT22;6174;49.058;8.524;2023-08-08T09:04:19;18.70;99.50
12223;DHT22;6174;49.058;8.524;2023-08-08T09:06:47;18.70;99.20
12223;DHT22;6174;49.058;8.524;2023-08-08T09:09:14;18.70;98.60
12223;DHT22;6174;49.058;8.524;2023-08-08T09:11:42;18.80;99.60
12223;DHT22;6174;49.058;8.524;2023-08-08T09:14:15;18.90;99.80
12223;DHT22;6174;49.058;8.524;2023-08-08T09:16:43;19.00;99.90
12223;DHT22;6174;49.058;8.524;2023-08-08T09:19:11;19.20;99.50
12223;DHT22;6174;49.058;8.524;2023-08-08T09:21:38;19.20;99.20
12223;DHT22;6174;49.058;8.524;2023-08-08T09:24:05;19.10;98.00
12223;DHT22;6174;49.058;8.524;2023-08-08T09:26:32;19.00;97.70
12223;DHT22;6174;49.058;8.524;2023-08-08T09:29:00;19.00;98.20
12223;DHT22;6174;49.058;8.524;2023-08-08T09:31:27;19.10;97.70
12223;DHT22;6174;49.058;8.524;2023-08-08T09:33:54;19.00;97.40
12223;DHT22;6174;49.058;8.524;2023-08-08T09:36:23;19.10;98.00
12223;DHT22;6174;49.058;8.524;2023-08-08T09:38:51;19.10;96.70
12223;DHT22;6174;49.058;8.524;2023-08-08T09:41:18;19.20;97.80
12223;DHT22;6174;49.058;8.524;2023-08-08T09:43:45;19.10;96.50
12223;DHT22;6174;49.058;8.524;2023-08-08T09:46:13;19.20;96.90
12223;DHT22;6174;49.058;8.524;2023-08-08T09:48:41;19.20;97.60
12223;DHT22;6174;49.058;8.524;2023-08-08T09:51:08;19.40;98.10
12223;DHT22;6174;49.058;8.524;2023-08-08T09:53:36;19.50;97.70
12223;DHT22;6174;49.058;8.524;2023-08-08T09:56:05;19.60;96.90
12223;DHT22;6174;49.058;8.524;2023-08-08T09:58:33;19.70;96.40
12223;DHT22;6174;49.058;8.524;2023-08-08T10:01:00;19.70;95.80
12223;DHT22;6174;49.058;8.524;2023-08-08T10:03:31;19.80;95.60
12223;DHT22;6174;49.058;8.524;2023-08-08T10:05:58;19.80;95.30
12223;DHT22;6174;49.058;8.524;2023-08-08T10:08:25;19.70;95.40
12223;DHT22;6174;49.058;8.524;2023-08-08T10:10:55;19.70;96.50
12223;DHT22;6174;49.058;8.524;2023-08-08T10:13:23;19.70;95.70
12223;DHT22;6174;49.058;8.524;2023-08-08T10:15:51;19.60;95.80
12223;DHT22;6174;49.058;8.524;2023-08-08T10:18:18;19.60;93.40
12223;DHT22;6174;49.058;8.524;2023-08-08T10:20:48;19.70;92.80
12223;DHT22;6174;49.058;8.524;2023-08-08T10:23:15;19.80;93.20
12223;DHT22;6174;49.058;8.524;2023-08-08T10:25:44;20.00;92.80
12223;DHT22;6174;49.058;8.524;2023-08-08T10:28:13;20.10;93.00
12223;DHT22;6174;49.058;8.524;2023-08-08T10:30:44;20.20;92.40
12223;DHT22;6174;49.058;8.524;2023-08-08T10:33:19;20.20;93.10
12223;DHT22;6174;49.058;8.524;2023-08-08T10:35:58;20.30;92.20
12223;DHT22;6174;49.058;8.524;2023-08-08T10:38:26;20.40;92.10
12223;DHT22;6174;49.058;8.524;2023-08-08T10:40:56;20.50;92.10
12223;DHT22;6174;49.058;8.524;2023-08-08T10:43:29;20.60;92.60
12223;DHT22;6174;49.058;8.524;2023-08-08T10:46:00;20.80;93.20
12223;DHT22;6174;49.058;8.524;2023-08-08T10:48:27;20.80;91.00
12223;DHT22;6174;49.058;8.524;2023-08-08T10:50:55;20.90;90.30
12223;DHT22;6174;49.058;8.524;2023-08-08T10:53:25;20.90;88.90
12223;DHT22;6174;49.058;8.524;2023-08-08T10:55:57;21.00;84.70
12223;DHT22;6174;49.058;8.524;2023-08-08T10:58:36;20.90;84.40
12223;DHT22;6174;49.058;8.524;2023-08-08T11:01:04;20.80;82.70
12223;DHT22;6174;49.058;8.524;2023-08-08T11:03:34;20.80;85.00
12223;DHT22;6174;49.058;8.524;2023-08-08T11:06:01;20.90;84.90
12223;DHT22;6174;49.058;8.524;2023-08-08T11:08:29;21.10;83.40
12223;DHT22;6174;49.058;8.524;2023-08-08T11:10:57;21.10;87.20
12223;DHT22;6174;49.058;8.524;2023-08-08T11:13:24;21.20;87.70
12223;DHT22;6174;49.058;8.524;2023-08-08T11:15:52;21.30;81.80
12223;DHT22;6174;49.058;8.524;2023-08-08T11:18:19;21.30;82.50
12223;DHT22;6174;49.058;8.524;2023-08-08T11:20:46;21.40;83.70
12223;DHT22;6174;49.058;8.524;2023-08-08T11:23:13;21.60;84.90
12223;DHT22;6174;49.058;8.524;2023-08-08T11:25:41;21.80;79.20
12223;DHT22;6174;49.058;8.524;2023-08-08T11:28:09;21.70;76.70
12223;DHT22;6174;49.058;8.524;2023-08-08T11:30:38;21.60;77.70
12223;DHT22;6174;49.058;8.524;2023-08-08T11:33:07;21.60;80.60
12223;DHT22;6174;49.058;8.524;2023-08-08T11:35:34;21.50;81.40
12223;DHT22;6174;49.058;8.524;2023-08-08T11:38:01;21.40;83.60
12223;DHT22;6174;49.058;8.524;2023-08-08T11:40:29;21.50;77.90
12223;DHT22;6174;49.058;8.524;2023-08-08T11:42:57;21.50;81.10
12223;DHT22;6174;49.058;8.524;2023-08-08T11:45:25;21.80;81.60
12223;DHT22;6174;49.058;8.524;2023-08-08T11:47:53;21.80;79.20
12223;DHT22;6174;49.058;8.524;2023-08-08T11:50:22;21.80;79.40
12223;DHT22;6174;49.058;8.524;2023-08-08T11:52:51;21.70;79.10
12223;DHT22;6174;49.058;8.524;2023-08-08T11:55:18;21.70;81.50
12223;DHT22;6174;49.058;8.524;2023-08-08T11:57:48;21.70;80.10
12223;DHT22;6174;49.058;8.524;2023-08-08T12:00:15;21.70;82.40
12223;DHT22;6174;49.058;8.524;2023-08-08T12:02:43;21.70;80.60
12223;DHT22;6174;49.058;8.524;2023-08-08T12:05:12;21.60;80.40
12223;DHT22;6174;49.058;8.524;2023-08-08T12:07:40;21.50;80.40
12223;DHT22;6174;49.058;8.524;2023-08-08T12:10:14;21.50;78.90
12223;DHT22;6174;49.058;8.524;2023-08-08T12:12:42;21.60;80.60
12223;DHT22;6174;49.058;8.524;2023-08-08T12:15:09;21.70;80.00
12223;DHT22;6174;49.058;8.524;2023-08-08T12:17:36;21.80;79.20
12223;DHT22;6174;49.058;8.524;2023-08-08T12:20:04;21.80;77.30
12223;DHT22;6174;49.058;8.524;2023-08-08T12:22:32;21.90;77.00
12223;DHT22;6174;49.058;8.524;2023-08-08T12:25:00;21.90;76.80
12223;DHT22;6174;49.058;8.524;2023-08-08T12:27:28;21.90;77.40
12223;DHT22;6174;49.058;8.524;2023-08-08T12:29:55;21.90;77.60
12223;DHT22;6174;49.058;8.524;2023-08-08T12:32:26;21.80;78.50
12223;DHT22;6174;49.058;8.524;2023-08-08T12:34:54;21.90;78.10
12223;DHT22;6174;49.058;8.524;2023-08-08T12:37:21;22.00;79.70
12223;DHT22;6174;49.058;8.524;2023-08-08T12:39:48;22.00;76.10
12223;DHT22;6174;49.058;8.524;2023-08-08T12:42:17;21.90;78.40
12223;DHT22;6174;49.058;8.524;2023-08-08T12:44:43;22.00;79.40
12223;DHT22;6174;49.058;8.524;2023-08-08T12:47:10;22.00;76.20
12223;DHT22;6174;49.058;8.524;2023-08-08T12:49:37;22.00;77.40
12223;DHT22;6174;49.058;8.524;2023-08-08T12:52:04;21.90;76.10
12223;DHT22;6174;49.058;8.524;2023-08-08T12:54:31;21.90;77.00
12223;DHT22;6174;49.058;8.524;2023-08-08T12:56:57;22.10;77.60
12223;DHT22;6174;49.058;8.524;2023-08-08T12:59:26;22.10;78.10
12223;DHT22;6174;49.058;8.524;2023-08-08T13:01:52;22.20;77.40
12223;DHT22;6174;49.058;8.524;2023-08-08T13:04:19;22.30;76.70
12223;DHT22;6174;49.058;8.524;2023-08-08T13:06:46;22.20;74.60
12223;DHT22;6174;49.058;8.524;2023-08-08T13:09:13;22.30;76.80
12223;DHT22;6174;49.058;8.524;2023-08-08T13:11:41;22.40;73.70
12223;DHT22;6174;49.058;8.524;2023-08-08T13:14:07;22.30;72.90
12223;DHT22;6174;49.058;8.524;2023-08-08T13:16:35;22.40;76.50
12223;DHT22;6174;49.058;8.524;2023-08-08T13:19:03;22.50;71.40
12223;DHT22;6174;49.058;8.524;2023-08-08T13:21:30;22.60;75.10
12223;DHT22;6174;49.058;8.524;2023-08-08T13:23:57;22.50;72.60
12223;DHT22;6174;49.058;8.524;2023-08-08T13:26:24;22.50;74.40
12223;DHT22;6174;49.058;8.524;2023-08-08T13:28:51;22.50;76.70
12223;DHT22;6174;49.058;8.524;2023-08-08T13:31:21;22.40;72.70
12223;DHT22;6174;49.058;8.524;2023-08-08T13:33:49;22.40;75.00
12223;DHT22;6174;49.058;8.524;2023-08-08T13:36:16;22.40;73.90
12223;DHT22;6174;49.058;8.524;2023-08-08T13:38:43;22.40;75.60
12223;DHT22;6174;49.058;8.524;2023-08-08T13:41:09;22.50;76.90
12223;DHT22;6174;49.058;8.524;2023-08-08T13:43:36;22.50;75.30
12223;DHT22;6174;49.058;8.524;2023-08-08T13:46:03;22.40;73.50
12223;DHT22;6174;49.058;8.524;2023-08-08T13:48:33;22.20;72.90
12223;DHT22;6174;49.058;8.524;2023-08-08T13:51:01;22.30;75.50
12223;DHT22;6174;49.058;8.524;2023-08-08T13:53:28;22.20;73.80
12223;DHT22;6174;49.058;8.524;2023-08-08T13:55:55;22.10;73.30
12223;DHT22;6174;49.058;8.524;2023-08-08T13:58:22;22.10;74.30
12223;DHT22;6174;49.058;8.524;2023-08-08T14:00:49;22.10;72.40
12223;DHT22;6174;49.058;8.524;2023-08-08T14:03:16;22.30;71.90
12223;DHT22;6174;49.058;8.524;2023-08-08T14:05:42;22.40;73.70
12223;DHT22;6174;49.058;8.524;2023-08-08T14:08:11;22.50;72.20
12223;DHT22;6174;49.058;8.524;2023-08-08T14:10:37;22.50;70.80
12223;DHT22;6174;49.058;8.524;2023-08-08T14:13:04;22.40;70.30
12223;DHT22;6174;49.058;8.524;2023-08-08T14:15:31;22.30;68.80
12223;DHT22;6174;49.058;8.524;2023-08-08T14:17:58;22.30;71.50
12223;DHT22;6174;49.058;8.524;2023-08-08T14:20:26;22.40;71.50
12223;DHT22;6174;49.058;8.524;2023-08-08T14:22:52;22.50;74.40
12223;DHT22;6174;49.058;8.524;2023-08-08T14:25:21;22.50;70.30
12223;DHT22;6174;49.058;8.524;2023-08-08T14:27:47;22.60;69.70
12223;DHT22;6174;49.058;8.524;2023-08-08T14:30:14;22.60;68.50
12223;DHT22;6174;49.058;8.524;2023-08-08T14:32:41;22.60;67.60
12223;DHT22;6174;49.058;8.524;2023-08-08T14:35:08;22.60;67.70
12223;DHT22;6174;49.058;8.524;2023-08-08T14:37:36;22.60;67.20
12223;DHT22;6174;49.058;8.524;2023-08-08T14:40:03;22.70;67.10
12223;DHT22;6174;49.058;8.524;2023-08-08T14:42:32;22.70;67.40
12223;DHT22;6174;49.058;8.524;2023-08-08T14:44:59;22.50;66.50
12223;DHT22;6174;49.058;8.524;2023-08-08T14:47:26;22.50;67.90
12223;DHT22;6174;49.058;8.524;2023-08-08T14:49:53;22.60;66.70
12223;DHT22;6174;49.058;8.524;2023-08-08T14:52:19;22.50;67.00
12223;DHT22;6174;49.058;8.524;2023-08-08T14:54:46;22.60;67.20
12223;DHT22;6174;49.058;8.524;2023-08-08T14:57:13;22.60;68.80
12223;DHT22;6174;49.058;8.524;2023-08-08T14:59:41;22.70;70.10
12223;DHT22;6174;49.058;8.524;2023-08-08T15:02:08;22.90;69.50
12223;DHT22;6174;49.058;8.524;2023-08-08T15:04:35;23.00;68.20
12223;DHT22;6174;49.058;8.524;2023-08-08T15:07:02;22.90;67.90
12223;DHT22;6174;49.058;8.524;2023-08-08T15:09:29;22.90;67.80
12223;DHT22;6174;49.058;8.524;2023-08-08T15:11:56;22.70;67.70
12223;DHT22;6174;49.058;8.524;2023-08-08T15:14:23;22.70;66.90
12223;DHT22;6174;49.058;8.524;2023-08-08T15:16:53;22.70;68.50
12223;DHT22;6174;49.058;8.524;2023-08-08T15:19:20;22.60;67.10
12223;DHT22;6174;49.058;8.524;2023-08-08T15:21:46;22.70;68.90
12223;DHT22;6174;49.058;8.524;2023-08-08T15:24:13;22.60;69.00
12223;DHT22;6174;49.058;8.524;2023-08-08T15:26:40;22.50;70.60
12223;DHT22;6174;49.058;8.524;2023-08-08T15:29:07;22.40;70.20
12223;DHT22;6174;49.058;8.524;2023-08-08T15:31:34;22.30;70.30
12223;DHT22;6174;49.058;8.524;2023-08-08T15:34:02;22.20;70.20
12223;DHT22;6174;49.058;8.524;2023-08-08T15:36:29;22.10;72.20
12223;DHT22;6174;49.058;8.524;2023-08-08T15:38:56;22.00;71.80
12223;DHT22;6174;49.058;8.524;2023-08-08T15:41:23;22.00;73.20
12223;DHT22;6174;49.058;8.524;2023-08-08T15:43:49;22.00;70.80
12223;DHT22;6174;49.058;8.524;2023-08-08T15:46:16;21.90;71.50
12223;DHT22;6174;49.058;8.524;2023-08-08T15:48:43;22.00;71.80
12223;DHT22;6174;49.058;8.524;2023-08-08T15:51:11;22.00;73.10
12223;DHT22;6174;49.058;8.524;2023-08-08T15:53:38;22.00;72.30
12223;DHT22;6174;49.058;8.524;2023-08-08T15:56:05;21.90;72.20
12223;DHT22;6174;49.058;8.524;2023-08-08T15:58:32;22.00;73.30
12223;DHT22;6174;49.058;8.524;2023-08-08T16:00:59;22.10;72.20
12223;DHT22;6174;49.058;8.524;2023-08-08T16:03:25;22.10;73.50
12223;DHT22;6174;49.058;8.524;2023-08-08T16:05:52;22.10;73.80
12223;DHT22;6174;49.058;8.524;2023-08-08T16:08:20;22.00;73.80
12223;DHT22;6174;49.058;8.524;2023-08-08T16:10:47;22.00;75.80
12223;DHT22;6174;49.058;8.524;2023-08-08T16:13:15;22.10;75.50
12223;DHT22;6174;49.058;8.524;2023-08-08T16:15:42;22.20;76.00
12223;DHT22;6174;49.058;8.524;2023-08-08T16:18:08;22.10;76.00
12223;DHT22;6174;49.058;8.524;2023-08-08T16:20:35;22.10;76.90
12223;DHT22;6174;49.058;8.524;2023-08-08T16:23:02;22.00;75.70
12223;DHT22;6174;49.058;8.524;2023-08-08T16:25:30;21.90;76.80
12223;DHT22;6174;49.058;8.524;2023-08-08T16:27:57;21.90;76.90
12223;DHT22;6174;49.058;8.524;2023-08-08T16:30:24;21.90;76.90
12223;DHT22;6174;49.058;8.524;2023-08-08T16:32:51;21.80;76.90
12223;DHT22;6174;49.058;8.524;2023-08-08T16:35:18;21.80;77.50
12223;DHT22;6174;49.058;8.524;2023-08-08T16:37:45;21.80;78.10
12223;DHT22;6174;49.058;8.524;2023-08-08T16:40:12;21.70;78.70
12223;DHT22;6174;49.058;8.524;2023-08-08T16:42:40;21.70;78.40
12223;DHT22;6174;49.058;8.524;2023-08-08T16:45:07;21.60;78.40
12223;DHT22;6174;49.058;8.524;2023-08-08T16:47:34;21.60;79.70
12223;DHT22;6174;49.058;8.524;2023-08-08T16:50:01;21.70;79.00
12223;DHT22;6174;49.058;8.524;2023-08-08T16:52:28;21.70;79.30
12223;DHT22;6174;49.058;8.524;2023-08-08T16:54:55;21.60;79.70
12223;DHT22;6174;49.058;8.524;2023-08-08T16:57:22;21.60;80.10
12223;DHT22;6174;49.058;8.524;2023-08-08T16:59:50;21.50;80.10
12223;DHT22;6174;49.058;8.524;2023-08-08T17:02:16;21.50;80.40
12223;DHT22;6174;49.058;8.524;2023-08-08T17:04:43;21.40;81.20
12223;DHT22;6174;49.058;8.524;2023-08-08T17:07:10;21.40;80.20
12223;DHT22;6174;49.058;8.524;2023-08-08T17:09:37;21.50;80.30
12223;DHT22;6174;49.058;8.524;2023-08-08T17:12:04;21.40;79.30
12223;DHT22;6174;49.058;8.524;2023-08-08T17:14:30;21.40;79.20
12223;DHT22;6174;49.058;8.524;2023-08-08T17:16:58;21.40;79.30
12223;DHT22;6174;49.058;8.524;2023-08-08T17:19:25;21.30;78.20
12223;DHT22;6174;49.058;8.524;2023-08-08T17:21:53;21.40;78.80
12223;DHT22;6174;49.058;8.524;2023-08-08T17:24:22;21.40;79.10
12223;DHT22;6174;49.058;8.524;2023-08-08T17:26:48;21.30;79.50
12223;DHT22;6174;49.058;8.524;2023-08-08T17:29:15;21.30;79.50
12223;DHT22;6174;49.058;8.524;2023-08-08T17:31:42;21.30;79.70
12223;DHT22;6174;49.058;8.524;2023-08-08T17:34:10;21.30;79.50
12223;DHT22;6174;49.058;8.524;2023-08-08T17:36:37;21.20;80.10
12223;DHT22;6174;49.058;8.524;2023-08-08T17:39:04;21.20;81.10
12223;DHT22;6174;49.058;8.524;2023-08-08T17:41:32;21.10;80.60
12223;DHT22;6174;49.058;8.524;2023-08-08T17:43:59;21.10;80.90
12223;DHT22;6174;49.058;8.524;2023-08-08T17:46:25;21.10;80.90
12223;DHT22;6174;49.058;8.524;2023-08-08T17:48:52;21.10;81.90
12223;DHT22;6174;49.058;8.524;2023-08-08T17:51:20;21.00;82.90
12223;DHT22;6174;49.058;8.524;2023-08-08T17:53:47;21.00;82.10
12223;DHT22;6174;49.058;8.524;2023-08-08T17:56:14;21.00;82.80
12223;DHT22;6174;49.058;8.524;2023-08-08T17:58:41;21.00;82.30
12223;DHT22;6174;49.058;8.524;2023-08-08T18:01:09;20.90;82.50
12223;DHT22;6174;49.058;8.524;2023-08-08T18:03:36;20.90;82.50
12223;DHT22;6174;49.058;8.524;2023-08-08T18:06:03;20.90;83.10
12223;DHT22;6174;49.058;8.524;2023-08-08T18:08:32;20.90;83.60
12223;DHT22;6174;49.058;8.524;2023-08-08T18:10:58;20.90;83.70
12223;DHT22;6174;49.058;8.524;2023-08-08T18:13:25;20.90;84.00
12223;DHT22;6174;49.058;8.524;2023-08-08T18:15:52;20.80;84.10
12223;DHT22;6174;49.058;8.524;2023-08-08T18:18:20;20.80;84.20
12223;DHT22;6174;49.058;8.524;2023-08-08T18:20:48;20.80;84.10
12223;DHT22;6174;49.058;8.524;2023-08-08T18:23:14;20.80;84.40
12223;DHT22;6174;49.058;8.524;2023-08-08T18:25:42;20.80;84.80
12223;DHT22;6174;49.058;8.524;2023-08-08T18:28:10;20.70;85.20
12223;DHT22;6174;49.058;8.524;2023-08-08T18:30:37;20.70;85.20
12223;DHT22;6174;49.058;8.524;2023-08-08T18:33:03;20.70;85.50
12223;DHT22;6174;49.058;8.524;2023-08-08T18:35:30;20.70;86.00
12223;DHT22;6174;49.058;8.524;2023-08-08T18:37:57;20.60;85.90
12223;DHT22;6174;49.058;8.524;2023-08-08T18:40:24;20.70;86.40
12223;DHT22;6174;49.058;8.524;2023-08-08T18:42:52;20.60;86.40
12223;DHT22;6174;49.058;8.524;2023-08-08T18:45:19;20.60;86.80
12223;DHT22;6174;49.058;8.524;2023-08-08T18:47:46;20.50;87.40
12223;DHT22;6174;49.058;8.524;2023-08-08T18:50:13;20.50;87.60
12223;DHT22;6174;49.058;8.524;2023-08-08T18:52:40;20.50;87.60
12223;DHT22;6174;49.058;8.524;2023-08-08T18:55:07;20.40;88.10
12223;DHT22;6174;49.058;8.524;2023-08-08T18:57:34;20.40;88.80
12223;DHT22;6174;49.058;8.524;2023-08-08T19:00:02;20.40;89.60
12223;DHT22;6174;49.058;8.524;2023-08-08T19:02:32;20.30;90.70
12223;DHT22;6174;49.058;8.524;2023-08-08T19:04:59;20.30;90.40
12223;DHT22;6174;49.058;8.524;2023-08-08T19:07:26;20.20;91.00
12223;DHT22;6174;49.058;8.524;2023-08-08T19:09:52;20.20;91.00
12223;DHT22;6174;49.058;8.524;2023-08-08T19:12:20;20.20;90.80
12223;DHT22;6174;49.058;8.524;2023-08-08T19:14:47;20.20;91.10
12223;DHT22;6174;49.058;8.524;2023-08-08T19:17:15;20.20;91.10
12223;DHT22;6174;49.058;8.524;2023-08-08T19:19:42;20.10;91.00
12223;DHT22;6174;49.058;8.524;2023-08-08T19:22:09;20.10;90.90
12223;DHT22;6174;49.058;8.524;2023-08-08T19:24:36;20.20;91.10
12223;DHT22;6174;49.058;8.524;2023-08-08T19:27:03;20.20;91.30
12223;DHT22;6174;49.058;8.524;2023-08-08T19:29:29;20.00;91.20
12223;DHT22;6174;49.058;8.524;2023-08-08T19:31:56;20.00;91.20
12223;DHT22;6174;49.058;8.524;2023-08-08T19:34:25;20.00;91.30
12223;DHT22;6174;49.058;8.524;2023-08-08T19:36:51;20.00;91.80
12223;DHT22;6174;49.058;8.524;2023-08-08T19:39:18;19.90;92.70
12223;DHT22;6174;49.058;8.524;2023-08-08T19:41:45;20.10;93.20
12223;DHT22;6174;49.058;8.524;2023-08-08T19:44:12;19.90;92.80
12223;DHT22;6174;49.058;8.524;2023-08-08T19:46:39;19.90;93.50
12223;DHT22;6174;49.058;8.524;2023-08-08T19:49:06;19.90;93.10
12223;DHT22;6174;49.058;8.524;2023-08-08T19:51:36;19.80;93.20
12223;DHT22;6174;49.058;8.524;2023-08-08T19:54:04;19.80;93.50
12223;DHT22;6174;49.058;8.524;2023-08-08T19:56:31;19.80;93.70
12223;DHT22;6174;49.058;8.524;2023-08-08T19:58:58;19.80;94.10
12223;DHT22;6174;49.058;8.524;2023-08-08T20:01:25;19.70;94.10
12223;DHT22;6174;49.058;8.524;2023-08-08T20:03:52;19.70;94.60
12223;DHT22;6174;49.058;8.524;2023-08-08T20:06:19;19.80;94.30
12223;DHT22;6174;49.058;8.524;2023-08-08T20:08:48;19.70;94.40
12223;DHT22;6174;49.058;8.524;2023-08-08T20:11:15;19.70;94.90
12223;DHT22;6174;49.058;8.524;2023-08-08T20:13:42;19.70;95.00
12223;DHT22;6174;49.058;8.524;2023-08-08T20:16:09;19.70;95.40
12223;DHT22;6174;49.058;8.524;2023-08-08T20:18:35;19.70;95.80
12223;DHT22;6174;49.058;8.524;2023-08-08T20:21:02;19.60;95.70
12223;DHT22;6174;49.058;8.524;2023-08-08T20:23:29;19.60;96.10
12223;DHT22;6174;49.058;8.524;2023-08-08T20:25:58;19.50;96.60
12223;DHT22;6174;49.058;8.524;2023-08-08T20:28:25;19.50;96.60
12223;DHT22;6174;49.058;8.524;2023-08-08T20:30:52;19.50;95.80
12223;DHT22;6174;49.058;8.524;2023-08-08T20:33:19;19.50;95.90
12223;DHT22;6174;49.058;8.524;2023-08-08T20:35:46;19.50;95.50
12223;DHT22;6174;49.058;8.524;2023-08-08T20:38:13;19.50;95.80
12223;DHT22;6174;49.058;8.524;2023-08-08T20:40:41;19.50;95.70
12223;DHT22;6174;49.058;8.524;2023-08-08T20:43:09;19.50;95.70
12223;DHT22;6174;49.058;8.524;2023-08-08T20:45:36;19.70;95.70